sensor_id;sensor_type;location;lat;lon;timestamp;P1;durP1;ratioP1;P2;durP2;ratioP2
70052;SDS011;57398;52.032;4.376;2022-07-01T00:02:04;28.15;;;11.20;;
70052;SDS011;57398;52.032;4.376;2022-07-01T00:04:34;26.58;;;11.95;;
70052;SDS011;57398;52.032;4.376;2022-07-01T00:07:01;26.90;;;11.90;;
70052;SDS011;57398;52.032;4.376;2022-07-01T00:09:29;31.77;;;12.33;;
70052;SDS011;57398;52.032;4.376;2022-07-01T00:11:57;26.58;;;12.02;;
70052;SDS011;57398;52.032;4.376;2022-07-01T00:14:24;27.33;;;12.02;;
70052;SDS011;57398;52.032;4.376;2022-07-01T00:16:52;28.25;;;13.45;;
70052;SDS011;57398;52.032;4.376;2022-07-01T00:19:20;28.13;;;12.43;;
70052;SDS011;57398;52.032;4.376;2022-07-01T00:21:49;29.43;;;12.70;;
70052;SDS011;57398;52.032;4.376;2022-07-01T00:24:16;26.08;;;12.15;;
70052;SDS011;57398;52.032;4.376;2022-07-01T00:26:44;31.10;;;12.48;;
70052;SDS011;57398;52.032;4.376;2022-07-01T00:29:11;30.17;;;12.77;;
70052;SDS011;57398;52.032;4.376;2022-07-01T00:31:39;30.60;;;12.70;;
70052;SDS011;57398;52.032;4.376;2022-07-01T00:34:06;28.30;;;11.83;;
70052;SDS011;57398;52.032;4.376;2022-07-01T00:36:34;28.50;;;12.35;;
70052;SDS011;57398;52.032;4.376;2022-07-01T00:39:03;28.88;;;11.32;;
70052;SDS011;57398;52.032;4.376;2022-07-01T00:41:30;28.73;;;11.60;;
70052;SDS011;57398;52.032;4.376;2022-07-01T00:43:58;28.92;;;12.00;;
70052;SDS011;57398;52.032;4.376;2022-07-01T00:46:25;28.43;;;11.27;;
70052;SDS011;57398;52.032;4.376;2022-07-01T00:48:55;28.92;;;11.52;;
70052;SDS011;57398;52.032;4.376;2022-07-01T00:51:23;27.90;;;11.98;;
70052;SDS011;57398;52.032;4.376;2022-07-01T00:53:50;28.95;;;11.50;;
70052;SDS011;57398;52.032;4.376;2022-07-01T00:56:19;26.10;;;11.95;;
70052;SDS011;57398;52.032;4.376;2022-07-01T00:58:47;23.27;;;10.70;;
70052;SDS011;57398;52.032;4.376;2022-07-01T01:01:14;24.17;;;11.43;;
70052;SDS011;57398;52.032;4.376;2022-07-01T01:03:42;29.27;;;11.63;;
70052;SDS011;57398;52.032;4.376;2022-07-01T01:06:10;28.58;;;11.65;;
70052;SDS011;57398;52.032;4.376;2022-07-01T01:08:37;26.95;;;10.73;;
70052;SDS011;57398;52.032;4.376;2022-07-01T01:11:05;27.30;;;10.97;;
70052;SDS011;57398;52.032;4.376;2022-07-01T01:13:34;26.17;;;10.73;;
70052;SDS011;57398;52.032;4.376;2022-07-01T01:16:01;30.67;;;11.93;;
70052;SDS011;57398;52.032;4.376;2022-07-01T01:18:29;24.90;;;10.40;;
70052;SDS011;57398;52.032;4.376;2022-07-01T01:20:58;23.88;;;9.43;;
70052;SDS011;57398;52.032;4.376;2022-07-01T01:23:25;22.27;;;10.20;;
70052;SDS011;57398;52.032;4.376;2022-07-01T01:25:53;25.30;;;10.68;;
70052;SDS011;57398;52.032;4.376;2022-07-01T01:28:20;24.20;;;10.40;;
70052;SDS011;57398;52.032;4.376;2022-07-01T01:30:48;23.10;;;9.55;;
70052;SDS011;57398;52.032;4.376;2022-07-01T01:33:15;24.58;;;9.80;;
70052;SDS011;57398;52.032;4.376;2022-07-01T01:35:43;22.53;;;10.13;;
70052;SDS011;57398;52.032;4.376;2022-07-01T01:38:12;24.17;;;10.60;;
70052;SDS011;57398;52.032;4.376;2022-07-01T01:40:39;21.92;;;9.55;;
70052;SDS011;57398;52.032;4.376;2022-07-01T01:43:09;19.58;;;8.55;;
70052;SDS011;57398;52.032;4.376;2022-07-01T01:45:37;18.58;;;8.98;;
70052;SDS011;57398;52.032;4.376;2022-07-01T01:48:04;18.27;;;8.03;;
70052;SDS011;57398;52.032;4.376;2022-07-01T01:50:32;18.35;;;8.23;;
70052;SDS011;57398;52.032;4.376;2022-07-01T01:52:59;23.10;;;8.68;;
70052;SDS011;57398;52.032;4.376;2022-07-01T01:55:28;18.10;;;8.40;;
70052;SDS011;57398;52.032;4.376;2022-07-01T01:57:56;16.98;;;8.38;;
70052;SDS011;57398;52.032;4.376;2022-07-01T02:00:23;17.27;;;7.80;;
70052;SDS011;57398;52.032;4.376;2022-07-01T02:02:50;17.85;;;7.30;;
70052;SDS011;57398;52.032;4.376;2022-07-01T02:05:18;15.68;;;7.43;;
70052;SDS011;57398;52.032;4.376;2022-07-01T02:07:46;16.10;;;7.03;;
70052;SDS011;57398;52.032;4.376;2022-07-01T02:10:13;15.15;;;6.93;;
70052;SDS011;57398;52.032;4.376;2022-07-01T02:12:42;15.60;;;7.50;;
70052;SDS011;57398;52.032;4.376;2022-07-01T02:15:10;16.98;;;7.10;;
70052;SDS011;57398;52.032;4.376;2022-07-01T02:17:39;19.60;;;6.70;;
70052;SDS011;57398;52.032;4.376;2022-07-01T02:20:07;14.40;;;7.00;;
70052;SDS011;57398;52.032;4.376;2022-07-01T02:22:34;15.85;;;6.60;;
70052;SDS011;57398;52.032;4.376;2022-07-01T02:25:02;13.87;;;6.07;;
70052;SDS011;57398;52.032;4.376;2022-07-01T02:27:30;15.43;;;6.97;;
70052;SDS011;57398;52.032;4.376;2022-07-01T02:29:59;15.27;;;6.85;;
70052;SDS011;57398;52.032;4.376;2022-07-01T02:32:26;16.58;;;6.43;;
70052;SDS011;57398;52.032;4.376;2022-07-01T02:34:54;13.70;;;6.70;;
70052;SDS011;57398;52.032;4.376;2022-07-01T02:37:21;14.53;;;6.43;;
70052;SDS011;57398;52.032;4.376;2022-07-01T02:39:49;12.68;;;5.95;;
70052;SDS011;57398;52.032;4.376;2022-07-01T02:42:16;14.48;;;6.50;;
70052;SDS011;57398;52.032;4.376;2022-07-01T02:44:53;13.23;;;5.88;;
70052;SDS011;57398;52.032;4.376;2022-07-01T02:47:22;15.60;;;6.22;;
70052;SDS011;57398;52.032;4.376;2022-07-01T02:49:49;13.80;;;6.10;;
70052;SDS011;57398;52.032;4.376;2022-07-01T02:52:18;13.75;;;6.05;;
70052;SDS011;57398;52.032;4.376;2022-07-01T02:54:45;16.88;;;6.25;;
70052;SDS011;57398;52.032;4.376;2022-07-01T02:57:13;17.52;;;7.13;;
70052;SDS011;57398;52.032;4.376;2022-07-01T02:59:40;16.27;;;6.22;;
70052;SDS011;57398;52.032;4.376;2022-07-01T03:02:08;14.93;;;6.73;;
70052;SDS011;57398;52.032;4.376;2022-07-01T03:04:37;15.48;;;6.53;;
70052;SDS011;57398;52.032;4.376;2022-07-01T03:07:05;15.02;;;7.20;;
70052;SDS011;57398;52.032;4.376;2022-07-01T03:09:33;14.60;;;6.38;;
70052;SDS011;57398;52.032;4.376;2022-07-01T03:12:01;15.35;;;7.13;;
70052;SDS011;57398;52.032;4.376;2022-07-01T03:14:50;17.10;;;6.93;;
70052;SDS011;57398;52.032;4.376;2022-07-01T03:17:17;18.08;;;7.63;;
70052;SDS011;57398;52.032;4.376;2022-07-01T03:19:46;15.55;;;6.97;;
70052;SDS011;57398;52.032;4.376;2022-07-01T03:22:14;16.88;;;7.70;;
70052;SDS011;57398;52.032;4.376;2022-07-01T03:24:41;19.45;;;7.65;;
70052;SDS011;57398;52.032;4.376;2022-07-01T03:27:09;18.07;;;7.77;;
70052;SDS011;57398;52.032;4.376;2022-07-01T03:29:36;19.10;;;7.97;;
70052;SDS011;57398;52.032;4.376;2022-07-01T03:32:04;18.88;;;8.15;;
70052;SDS011;57398;52.032;4.376;2022-07-01T03:34:32;19.75;;;8.50;;
70052;SDS011;57398;52.032;4.376;2022-07-01T03:37:01;19.05;;;8.10;;
70052;SDS011;57398;52.032;4.376;2022-07-01T03:39:29;18.60;;;8.43;;
70052;SDS011;57398;52.032;4.376;2022-07-01T03:41:56;18.58;;;8.25;;
70052;SDS011;57398;52.032;4.376;2022-07-01T03:44:24;19.25;;;8.40;;
70052;SDS011;57398;52.032;4.376;2022-07-01T03:46:51;19.08;;;7.82;;
70052;SDS011;57398;52.032;4.376;2022-07-01T03:49:19;17.10;;;7.88;;
70052;SDS011;57398;52.032;4.376;2022-07-01T03:51:46;17.03;;;8.00;;
70052;SDS011;57398;52.032;4.376;2022-07-01T03:54:17;16.85;;;7.95;;
70052;SDS011;57398;52.032;4.376;2022-07-01T03:56:56;17.00;;;8.35;;
70052;SDS011;57398;52.032;4.376;2022-07-01T03:59:24;17.50;;;8.25;;
70052;SDS011;57398;52.032;4.376;2022-07-01T04:01:52;16.92;;;7.75;;
70052;SDS011;57398;52.032;4.376;2022-07-01T04:04:20;19.23;;;8.40;;
70052;SDS011;57398;52.032;4.376;2022-07-01T04:06:47;20.33;;;8.27;;
70052;SDS011;57398;52.032;4.376;2022-07-01T04:09:16;18.58;;;7.90;;
70052;SDS011;57398;52.032;4.376;2022-07-01T04:11:45;18.88;;;8.30;;
70052;SDS011;57398;52.032;4.376;2022-07-01T04:14:13;16.30;;;7.60;;
70052;SDS011;57398;52.032;4.376;2022-07-01T04:16:41;18.30;;;7.63;;
70052;SDS011;57398;52.032;4.376;2022-07-01T04:19:08;17.23;;;7.88;;
70052;SDS011;57398;52.032;4.376;2022-07-01T04:21:36;17.42;;;8.70;;
70052;SDS011;57398;52.032;4.376;2022-07-01T04:24:21;14.27;;;7.47;;
70052;SDS011;57398;52.032;4.376;2022-07-01T04:26:51;15.00;;;7.57;;
70052;SDS011;57398;52.032;4.376;2022-07-01T04:29:20;16.10;;;7.70;;
70052;SDS011;57398;52.032;4.376;2022-07-01T04:31:47;14.13;;;7.38;;
70052;SDS011;57398;52.032;4.376;2022-07-01T04:34:15;17.58;;;7.47;;
70052;SDS011;57398;52.032;4.376;2022-07-01T04:36:42;16.60;;;7.78;;
70052;SDS011;57398;52.032;4.376;2022-07-01T04:39:10;16.70;;;7.82;;
70052;SDS011;57398;52.032;4.376;2022-07-01T04:41:38;16.97;;;7.57;;
70052;SDS011;57398;52.032;4.376;2022-07-01T04:44:24;19.08;;;7.40;;
70052;SDS011;57398;52.032;4.376;2022-07-01T04:46:52;15.73;;;7.00;;
70052;SDS011;57398;52.032;4.376;2022-07-01T04:49:19;16.15;;;7.00;;
70052;SDS011;57398;52.032;4.376;2022-07-01T04:51:47;14.30;;;7.28;;
70052;SDS011;57398;52.032;4.376;2022-07-01T04:54:15;17.17;;;7.00;;
70052;SDS011;57398;52.032;4.376;2022-07-01T04:56:42;15.18;;;6.90;;
70052;SDS011;57398;52.032;4.376;2022-07-01T04:59:10;16.88;;;7.30;;
70052;SDS011;57398;52.032;4.376;2022-07-01T05:01:39;13.02;;;6.85;;
70052;SDS011;57398;52.032;4.376;2022-07-01T05:04:06;15.80;;;6.68;;
70052;SDS011;57398;52.032;4.376;2022-07-01T05:06:34;18.07;;;6.30;;
70052;SDS011;57398;52.032;4.376;2022-07-01T05:09:02;14.68;;;6.43;;
70052;SDS011;57398;52.032;4.376;2022-07-01T05:11:29;15.02;;;7.00;;
70052;SDS011;57398;52.032;4.376;2022-07-01T05:13:57;14.10;;;5.80;;
70052;SDS011;57398;52.032;4.376;2022-07-01T05:16:24;15.35;;;6.03;;
70052;SDS011;57398;52.032;4.376;2022-07-01T05:18:53;13.50;;;6.07;;
70052;SDS011;57398;52.032;4.376;2022-07-01T05:21:38;14.32;;;5.97;;
70052;SDS011;57398;52.032;4.376;2022-07-01T05:24:26;16.08;;;5.85;;
70052;SDS011;57398;52.032;4.376;2022-07-01T05:26:54;15.85;;;6.22;;
70052;SDS011;57398;52.032;4.376;2022-07-01T05:29:22;14.48;;;5.22;;
70052;SDS011;57398;52.032;4.376;2022-07-01T05:31:49;13.83;;;5.87;;
70052;SDS011;57398;52.032;4.376;2022-07-01T05:34:18;12.32;;;5.82;;
70052;SDS011;57398;52.032;4.376;2022-07-01T05:36:45;15.20;;;5.07;;
70052;SDS011;57398;52.032;4.376;2022-07-01T05:39:13;11.35;;;5.07;;
70052;SDS011;57398;52.032;4.376;2022-07-01T05:41:40;12.52;;;5.18;;
70052;SDS011;57398;52.032;4.376;2022-07-01T05:44:08;10.50;;;4.50;;
70052;SDS011;57398;52.032;4.376;2022-07-01T05:46:35;12.80;;;4.60;;
70052;SDS011;57398;52.032;4.376;2022-07-01T05:49:03;11.02;;;4.35;;
70052;SDS011;57398;52.032;4.376;2022-07-01T05:51:32;14.95;;;4.70;;
70052;SDS011;57398;52.032;4.376;2022-07-01T05:54:00;13.45;;;4.32;;
70052;SDS011;57398;52.032;4.376;2022-07-01T05:56:27;9.40;;;4.37;;
70052;SDS011;57398;52.032;4.376;2022-07-01T05:58:55;11.50;;;4.80;;
70052;SDS011;57398;52.032;4.376;2022-07-01T06:01:22;15.15;;;5.05;;
70052;SDS011;57398;52.032;4.376;2022-07-01T06:03:50;13.18;;;5.20;;
70052;SDS011;57398;52.032;4.376;2022-07-01T06:06:17;13.48;;;5.32;;
70052;SDS011;57398;52.032;4.376;2022-07-01T06:08:47;13.33;;;4.73;;
70052;SDS011;57398;52.032;4.376;2022-07-01T06:11:14;13.93;;;4.88;;
70052;SDS011;57398;52.032;4.376;2022-07-01T06:13:42;14.13;;;5.20;;
70052;SDS011;57398;52.032;4.376;2022-07-01T06:16:09;10.48;;;4.75;;
70052;SDS011;57398;52.032;4.376;2022-07-01T06:18:37;11.30;;;5.15;;
70052;SDS011;57398;52.032;4.376;2022-07-01T06:21:05;13.53;;;5.40;;
70052;SDS011;57398;52.032;4.376;2022-07-01T06:23:32;15.88;;;5.10;;
70052;SDS011;57398;52.032;4.376;2022-07-01T06:26:01;12.50;;;5.43;;
70052;SDS011;57398;52.032;4.376;2022-07-01T06:28:28;11.88;;;4.82;;
70052;SDS011;57398;52.032;4.376;2022-07-01T06:30:57;10.60;;;5.00;;
70052;SDS011;57398;52.032;4.376;2022-07-01T06:33:25;14.50;;;4.47;;
70052;SDS011;57398;52.032;4.376;2022-07-01T06:36:00;9.20;;;4.25;;
70052;SDS011;57398;52.032;4.376;2022-07-01T06:38:28;10.27;;;3.90;;
70052;SDS011;57398;52.032;4.376;2022-07-01T06:40:55;9.02;;;3.90;;
70052;SDS011;57398;52.032;4.376;2022-07-01T06:43:42;12.27;;;4.50;;
70052;SDS011;57398;52.032;4.376;2022-07-01T06:46:10;13.30;;;4.37;;
70052;SDS011;57398;52.032;4.376;2022-07-01T06:48:37;9.90;;;4.40;;
70052;SDS011;57398;52.032;4.376;2022-07-01T06:51:05;12.65;;;4.68;;
70052;SDS011;57398;52.032;4.376;2022-07-01T06:53:32;11.43;;;4.20;;
70052;SDS011;57398;52.032;4.376;2022-07-01T06:56:00;11.07;;;4.40;;
70052;SDS011;57398;52.032;4.376;2022-07-01T06:58:27;10.33;;;4.00;;
70052;SDS011;57398;52.032;4.376;2022-07-01T07:00:56;11.25;;;4.55;;
70052;SDS011;57398;52.032;4.376;2022-07-01T07:03:23;9.80;;;4.13;;
70052;SDS011;57398;52.032;4.376;2022-07-01T07:05:51;12.25;;;4.32;;
70052;SDS011;57398;52.032;4.376;2022-07-01T07:08:19;9.55;;;4.05;;
70052;SDS011;57398;52.032;4.376;2022-07-01T07:10:47;11.97;;;4.07;;
70052;SDS011;57398;52.032;4.376;2022-07-01T07:13:14;8.02;;;3.92;;
70052;SDS011;57398;52.032;4.376;2022-07-01T07:15:41;10.38;;;4.00;;
70052;SDS011;57398;52.032;4.376;2022-07-01T07:18:10;9.60;;;4.05;;
70052;SDS011;57398;52.032;4.376;2022-07-01T07:20:38;12.10;;;4.20;;
70052;SDS011;57398;52.032;4.376;2022-07-01T07:23:05;10.67;;;4.20;;
70052;SDS011;57398;52.032;4.376;2022-07-01T07:25:33;10.55;;;4.00;;
70052;SDS011;57398;52.032;4.376;2022-07-01T07:28:01;9.27;;;4.05;;
70052;SDS011;57398;52.032;4.376;2022-07-01T07:30:28;8.23;;;3.30;;
70052;SDS011;57398;52.032;4.376;2022-07-01T07:32:56;10.35;;;3.13;;
70052;SDS011;57398;52.032;4.376;2022-07-01T07:35:28;8.27;;;3.33;;
70052;SDS011;57398;52.032;4.376;2022-07-01T07:37:56;9.00;;;3.30;;
70052;SDS011;57398;52.032;4.376;2022-07-01T07:40:23;9.75;;;3.60;;
70052;SDS011;57398;52.032;4.376;2022-07-01T07:42:51;11.48;;;3.65;;
70052;SDS011;57398;52.032;4.376;2022-07-01T07:45:19;9.82;;;3.10;;
70052;SDS011;57398;52.032;4.376;2022-07-01T07:47:47;8.60;;;2.93;;
70052;SDS011;57398;52.032;4.376;2022-07-01T07:50:15;8.07;;;2.88;;
70052;SDS011;57398;52.032;4.376;2022-07-01T07:52:44;7.50;;;2.90;;
70052;SDS011;57398;52.032;4.376;2022-07-01T07:55:11;6.10;;;2.63;;
70052;SDS011;57398;52.032;4.376;2022-07-01T07:57:39;6.93;;;2.58;;
70052;SDS011;57398;52.032;4.376;2022-07-01T08:00:08;8.60;;;2.57;;
70052;SDS011;57398;52.032;4.376;2022-07-01T08:02:36;6.95;;;2.22;;
70052;SDS011;57398;52.032;4.376;2022-07-01T08:05:05;6.65;;;2.10;;
70052;SDS011;57398;52.032;4.376;2022-07-01T08:07:34;9.02;;;2.13;;
70052;SDS011;57398;52.032;4.376;2022-07-01T08:10:03;7.75;;;2.33;;
70052;SDS011;57398;52.032;4.376;2022-07-01T08:12:31;4.90;;;2.00;;
70052;SDS011;57398;52.032;4.376;2022-07-01T08:14:58;7.95;;;2.20;;
70052;SDS011;57398;52.032;4.376;2022-07-01T08:17:26;6.20;;;2.00;;
70052;SDS011;57398;52.032;4.376;2022-07-01T08:19:53;5.70;;;2.00;;
70052;SDS011;57398;52.032;4.376;2022-07-01T08:22:21;4.78;;;1.80;;
70052;SDS011;57398;52.032;4.376;2022-07-01T08:24:49;6.20;;;1.60;;
70052;SDS011;57398;52.032;4.376;2022-07-01T08:27:18;6.45;;;1.85;;
70052;SDS011;57398;52.032;4.376;2022-07-01T08:29:45;7.55;;;2.03;;
70052;SDS011;57398;52.032;4.376;2022-07-01T08:32:13;6.72;;;1.98;;
70052;SDS011;57398;52.032;4.376;2022-07-01T08:34:40;7.13;;;2.30;;
70052;SDS011;57398;52.032;4.376;2022-07-01T08:37:08;6.27;;;2.03;;
70052;SDS011;57398;52.032;4.376;2022-07-01T08:39:35;5.45;;;2.03;;
70052;SDS011;57398;52.032;4.376;2022-07-01T08:42:03;6.72;;;2.42;;
70052;SDS011;57398;52.032;4.376;2022-07-01T08:44:32;8.15;;;2.20;;
70052;SDS011;57398;52.032;4.376;2022-07-01T08:47:01;6.35;;;2.42;;
70052;SDS011;57398;52.032;4.376;2022-07-01T08:49:28;6.53;;;2.30;;
70052;SDS011;57398;52.032;4.376;2022-07-01T08:51:56;6.22;;;2.28;;
70052;SDS011;57398;52.032;4.376;2022-07-01T08:54:23;7.57;;;2.50;;
70052;SDS011;57398;52.032;4.376;2022-07-01T08:56:51;10.20;;;2.70;;
70052;SDS011;57398;52.032;4.376;2022-07-01T08:59:22;6.70;;;2.55;;
70052;SDS011;57398;52.032;4.376;2022-07-01T09:01:57;5.70;;;2.00;;
70052;SDS011;57398;52.032;4.376;2022-07-01T09:04:25;7.38;;;1.90;;
70052;SDS011;57398;52.032;4.376;2022-07-01T09:06:57;5.45;;;1.70;;
70052;SDS011;57398;52.032;4.376;2022-07-01T09:09:27;6.57;;;1.48;;
70052;SDS011;57398;52.032;4.376;2022-07-01T09:11:55;5.72;;;1.88;;
70052;SDS011;57398;52.032;4.376;2022-07-01T09:14:24;4.87;;;1.30;;
70052;SDS011;57398;52.032;4.376;2022-07-01T09:16:52;3.55;;;1.92;;
70052;SDS011;57398;52.032;4.376;2022-07-01T09:19:22;4.32;;;1.80;;
70052;SDS011;57398;52.032;4.376;2022-07-01T09:21:50;3.17;;;1.38;;
70052;SDS011;57398;52.032;4.376;2022-07-01T09:24:23;5.35;;;1.40;;
70052;SDS011;57398;52.032;4.376;2022-07-01T09:26:57;3.80;;;1.70;;
70052;SDS011;57398;52.032;4.376;2022-07-01T09:29:25;3.70;;;1.50;;
70052;SDS011;57398;52.032;4.376;2022-07-01T09:31:53;3.00;;;1.48;;
70052;SDS011;57398;52.032;4.376;2022-07-01T09:34:22;4.28;;;1.10;;
70052;SDS011;57398;52.032;4.376;2022-07-01T09:36:53;4.13;;;1.30;;
70052;SDS011;57398;52.032;4.376;2022-07-01T09:39:21;5.10;;;1.40;;
70052;SDS011;57398;52.032;4.376;2022-07-01T09:42:01;5.47;;;1.55;;
70052;SDS011;57398;52.032;4.376;2022-07-01T09:44:29;6.13;;;1.90;;
70052;SDS011;57398;52.032;4.376;2022-07-01T09:46:56;6.00;;;2.40;;
70052;SDS011;57398;52.032;4.376;2022-07-01T09:49:26;9.05;;;3.13;;
70052;SDS011;57398;52.032;4.376;2022-07-01T09:51:53;4.23;;;1.50;;
70052;SDS011;57398;52.032;4.376;2022-07-01T09:54:21;7.07;;;2.33;;
70052;SDS011;57398;52.032;4.376;2022-07-01T09:56:48;5.88;;;1.83;;
70052;SDS011;57398;52.032;4.376;2022-07-01T09:59:16;4.55;;;1.90;;
70052;SDS011;57398;52.032;4.376;2022-07-01T10:01:44;4.95;;;1.60;;
70052;SDS011;57398;52.032;4.376;2022-07-01T10:04:12;6.30;;;1.70;;
70052;SDS011;57398;52.032;4.376;2022-07-01T10:06:48;8.60;;;1.58;;
70052;SDS011;57398;52.032;4.376;2022-07-01T10:09:31;3.45;;;1.33;;
70052;SDS011;57398;52.032;4.376;2022-07-01T10:14:44;5.25;;;1.90;;
70052;SDS011;57398;52.032;4.376;2022-07-01T10:17:25;8.80;;;2.33;;
70052;SDS011;57398;52.032;4.376;2022-07-01T10:19:54;8.38;;;2.03;;
70052;SDS011;57398;52.032;4.376;2022-07-01T10:22:27;5.63;;;1.60;;
70052;SDS011;57398;52.032;4.376;2022-07-01T10:24:54;8.55;;;1.92;;
70052;SDS011;57398;52.032;4.376;2022-07-01T10:27:22;6.32;;;2.38;;
70052;SDS011;57398;52.032;4.376;2022-07-01T10:30:11;4.30;;;1.80;;
70052;SDS011;57398;52.032;4.376;2022-07-01T10:32:41;6.75;;;1.90;;
70052;SDS011;57398;52.032;4.376;2022-07-01T10:35:29;5.45;;;2.08;;
70052;SDS011;57398;52.032;4.376;2022-07-01T10:38:03;8.00;;;2.15;;
70052;SDS011;57398;52.032;4.376;2022-07-01T10:40:41;3.97;;;1.25;;
70052;SDS011;57398;52.032;4.376;2022-07-01T10:43:11;7.17;;;1.73;;
70052;SDS011;57398;52.032;4.376;2022-07-01T10:45:46;6.25;;;1.90;;
70052;SDS011;57398;52.032;4.376;2022-07-01T10:48:20;5.47;;;1.95;;
70052;SDS011;57398;52.032;4.376;2022-07-01T10:50:48;6.25;;;2.00;;
70052;SDS011;57398;52.032;4.376;2022-07-01T10:53:18;5.28;;;2.30;;
70052;SDS011;57398;52.032;4.376;2022-07-01T10:55:47;6.27;;;1.77;;
70052;SDS011;57398;52.032;4.376;2022-07-01T10:58:19;5.25;;;1.88;;
70052;SDS011;57398;52.032;4.376;2022-07-01T11:01:02;4.97;;;2.10;;
70052;SDS011;57398;52.032;4.376;2022-07-01T11:03:33;5.95;;;1.92;;
70052;SDS011;57398;52.032;4.376;2022-07-01T11:06:02;5.85;;;2.17;;
70052;SDS011;57398;52.032;4.376;2022-07-01T11:08:30;7.10;;;2.50;;
70052;SDS011;57398;52.032;4.376;2022-07-01T11:10:59;6.80;;;2.40;;
70052;SDS011;57398;52.032;4.376;2022-07-01T11:13:28;7.15;;;2.28;;
70052;SDS011;57398;52.032;4.376;2022-07-01T11:15:56;6.57;;;2.28;;
70052;SDS011;57398;52.032;4.376;2022-07-01T11:18:24;5.38;;;2.45;;
70052;SDS011;57398;52.032;4.376;2022-07-01T11:21:01;6.37;;;2.57;;
70052;SDS011;57398;52.032;4.376;2022-07-01T11:23:30;7.35;;;2.58;;
70052;SDS011;57398;52.032;4.376;2022-07-01T11:26:05;7.75;;;2.60;;
70052;SDS011;57398;52.032;4.376;2022-07-01T11:28:37;6.22;;;2.38;;
70052;SDS011;57398;52.032;4.376;2022-07-01T11:31:04;5.93;;;2.00;;
70052;SDS011;57398;52.032;4.376;2022-07-01T11:33:32;5.37;;;1.97;;
70052;SDS011;57398;52.032;4.376;2022-07-01T11:35:59;6.13;;;2.00;;
70052;SDS011;57398;52.032;4.376;2022-07-01T11:38:46;6.07;;;1.90;;
70052;SDS011;57398;52.032;4.376;2022-07-01T11:41:39;3.67;;;1.30;;
70052;SDS011;57398;52.032;4.376;2022-07-01T11:44:07;3.78;;;1.10;;
70052;SDS011;57398;52.032;4.376;2022-07-01T11:46:34;2.50;;;0.80;;
70052;SDS011;57398;52.032;4.376;2022-07-01T11:49:02;2.88;;;0.77;;
70052;SDS011;57398;52.032;4.376;2022-07-01T11:51:37;2.97;;;0.90;;
70052;SDS011;57398;52.032;4.376;2022-07-01T11:54:06;2.35;;;0.90;;
70052;SDS011;57398;52.032;4.376;2022-07-01T11:56:35;3.40;;;0.70;;
70052;SDS011;57398;52.032;4.376;2022-07-01T11:59:04;3.00;;;0.90;;
70052;SDS011;57398;52.032;4.376;2022-07-01T12:01:33;3.20;;;0.90;;
70052;SDS011;57398;52.032;4.376;2022-07-01T12:04:01;4.93;;;1.23;;
70052;SDS011;57398;52.032;4.376;2022-07-01T12:06:29;4.00;;;0.90;;
70052;SDS011;57398;52.032;4.376;2022-07-01T12:08:57;4.10;;;0.90;;
70052;SDS011;57398;52.032;4.376;2022-07-01T12:11:27;3.73;;;0.83;;
70052;SDS011;57398;52.032;4.376;2022-07-01T12:13:57;4.47;;;0.88;;
70052;SDS011;57398;52.032;4.376;2022-07-01T12:16:26;3.78;;;0.90;;
70052;SDS011;57398;52.032;4.376;2022-07-01T12:18:54;2.55;;;0.70;;
70052;SDS011;57398;52.032;4.376;2022-07-01T12:21:22;3.08;;;0.80;;
70052;SDS011;57398;52.032;4.376;2022-07-01T12:26:47;3.33;;;0.73;;
70052;SDS011;57398;52.032;4.376;2022-07-01T12:29:15;3.97;;;0.88;;
70052;SDS011;57398;52.032;4.376;2022-07-01T12:31:43;2.70;;;0.90;;
70052;SDS011;57398;52.032;4.376;2022-07-01T12:34:10;4.18;;;1.10;;
70052;SDS011;57398;52.032;4.376;2022-07-01T12:36:46;5.67;;;1.07;;
70052;SDS011;57398;52.032;4.376;2022-07-01T12:39:13;3.90;;;1.00;;
70052;SDS011;57398;52.032;4.376;2022-07-01T12:41:48;4.28;;;1.52;;
70052;SDS011;57398;52.032;4.376;2022-07-01T12:44:23;4.78;;;1.30;;
70052;SDS011;57398;52.032;4.376;2022-07-01T12:46:51;5.88;;;1.80;;
70052;SDS011;57398;52.032;4.376;2022-07-01T12:49:20;3.93;;;1.67;;
70052;SDS011;57398;52.032;4.376;2022-07-01T12:51:48;5.13;;;1.70;;
70052;SDS011;57398;52.032;4.376;2022-07-01T12:54:28;4.70;;;1.73;;
70052;SDS011;57398;52.032;4.376;2022-07-01T12:56:55;6.10;;;1.83;;
70052;SDS011;57398;52.032;4.376;2022-07-01T12:59:24;5.38;;;1.60;;
70052;SDS011;57398;52.032;4.376;2022-07-01T13:01:52;5.03;;;1.70;;
70052;SDS011;57398;52.032;4.376;2022-07-01T13:04:23;5.00;;;1.80;;
70052;SDS011;57398;52.032;4.376;2022-07-01T13:06:51;5.28;;;1.85;;
70052;SDS011;57398;52.032;4.376;2022-07-01T13:09:18;4.57;;;1.60;;
70052;SDS011;57398;52.032;4.376;2022-07-01T13:11:46;4.40;;;1.80;;
70052;SDS011;57398;52.032;4.376;2022-07-01T13:14:14;4.97;;;2.00;;
70052;SDS011;57398;52.032;4.376;2022-07-01T13:16:43;6.80;;;1.90;;
70052;SDS011;57398;52.032;4.376;2022-07-01T13:19:10;6.28;;;2.10;;
70052;SDS011;57398;52.032;4.376;2022-07-01T13:21:38;5.47;;;1.70;;
70052;SDS011;57398;52.032;4.376;2022-07-01T13:24:05;3.90;;;1.50;;
70052;SDS011;57398;52.032;4.376;2022-07-01T13:26:53;8.40;;;1.90;;
70052;SDS011;57398;52.032;4.376;2022-07-01T13:29:20;6.40;;;1.83;;
70052;SDS011;57398;52.032;4.376;2022-07-01T13:31:54;5.72;;;2.05;;
70052;SDS011;57398;52.032;4.376;2022-07-01T13:34:22;6.35;;;2.13;;
70052;SDS011;57398;52.032;4.376;2022-07-01T13:36:49;6.07;;;1.90;;
70052;SDS011;57398;52.032;4.376;2022-07-01T13:39:17;5.80;;;2.05;;
70052;SDS011;57398;52.032;4.376;2022-07-01T13:41:45;5.77;;;2.00;;
70052;SDS011;57398;52.032;4.376;2022-07-01T13:44:12;6.57;;;1.48;;
70052;SDS011;57398;52.032;4.376;2022-07-01T13:46:40;5.40;;;1.48;;
70052;SDS011;57398;52.032;4.376;2022-07-01T13:49:13;4.30;;;1.40;;
70052;SDS011;57398;52.032;4.376;2022-07-01T13:51:41;3.88;;;1.00;;
70052;SDS011;57398;52.032;4.376;2022-07-01T13:54:09;6.33;;;0.80;;
70052;SDS011;57398;52.032;4.376;2022-07-01T13:56:36;3.65;;;0.90;;
70052;SDS011;57398;52.032;4.376;2022-07-01T13:59:04;4.45;;;0.80;;
70052;SDS011;57398;52.032;4.376;2022-07-01T14:01:33;4.15;;;1.00;;
70052;SDS011;57398;52.032;4.376;2022-07-01T14:04:01;3.17;;;0.90;;
70052;SDS011;57398;52.032;4.376;2022-07-01T14:06:30;4.17;;;0.87;;
70052;SDS011;57398;52.032;4.376;2022-07-01T14:08:57;2.50;;;0.77;;
70052;SDS011;57398;52.032;4.376;2022-07-01T14:11:25;3.88;;;1.10;;
70052;SDS011;57398;52.032;4.376;2022-07-01T14:13:52;3.78;;;0.90;;
70052;SDS011;57398;52.032;4.376;2022-07-01T14:16:20;4.80;;;1.00;;
70052;SDS011;57398;52.032;4.376;2022-07-01T14:18:47;5.33;;;1.10;;
70052;SDS011;57398;52.032;4.376;2022-07-01T14:21:17;3.10;;;1.00;;
70052;SDS011;57398;52.032;4.376;2022-07-01T14:23:46;3.75;;;1.00;;
70052;SDS011;57398;52.032;4.376;2022-07-01T14:26:20;3.33;;;0.90;;
70052;SDS011;57398;52.032;4.376;2022-07-01T14:28:48;4.45;;;1.05;;
70052;SDS011;57398;52.032;4.376;2022-07-01T14:31:15;2.33;;;0.80;;
70052;SDS011;57398;52.032;4.376;2022-07-01T14:33:43;3.30;;;0.98;;
70052;SDS011;57398;52.032;4.376;2022-07-01T14:36:10;4.30;;;1.15;;
70052;SDS011;57398;52.032;4.376;2022-07-01T14:38:38;2.70;;;1.00;;
70052;SDS011;57398;52.032;4.376;2022-07-01T14:41:07;3.22;;;1.10;;
70052;SDS011;57398;52.032;4.376;2022-07-01T14:43:34;3.20;;;1.00;;
70052;SDS011;57398;52.032;4.376;2022-07-01T14:46:02;3.53;;;1.10;;
70052;SDS011;57398;52.032;4.376;2022-07-01T14:48:35;2.92;;;1.08;;
70052;SDS011;57398;52.032;4.376;2022-07-01T14:51:05;2.97;;;1.00;;
70052;SDS011;57398;52.032;4.376;2022-07-01T14:53:33;3.30;;;0.90;;
70052;SDS011;57398;52.032;4.376;2022-07-01T14:56:00;2.93;;;1.07;;
70052;SDS011;57398;52.032;4.376;2022-07-01T14:58:29;3.35;;;1.00;;